sensor_id;sensor_type;location;lat;lon;timestamp;pressure;altitude;pressure_sealevel;temperature;humidity
54936;BME280;40838;50.676;7.838;2023-11-19T00:00:28;97887.22;;;15.47;100.00
54936;BME280;40838;50.676;7.838;2023-11-19T00:02:55;97881.16;;;16.15;100.00
54936;BME280;40838;50.676;7.838;2023-11-19T00:05:22;97879.91;;;17.53;96.18
54936;BME280;40838;50.676;7.838;2023-11-19T00:07:49;97881.97;;;16.02;100.00
54936;BME280;40838;50.676;7.838;2023-11-19T00:10:16;97875.66;;;15.65;100.00
54936;BME280;40838;50.676;7.838;2023-11-19T00:12:46;97866.22;;;18.34;93.09
54936;BME280;40838;50.676;7.838;2023-11-19T00:15:13;97868.94;;;17.54;96.01
54936;BME280;40838;50.676;7.838;2023-11-19T00:17:44;97867.97;;;16.46;100.00
54936;BME280;40838;50.676;7.838;2023-11-19T00:20:12;97862.91;;;17.80;94.39
54936;BME280;40838;50.676;7.838;2023-11-19T00:22:40;97856.69;;;17.31;98.92
54936;BME280;40838;50.676;7.838;2023-11-19T00:25:07;97858.72;;;18.71;89.95
54936;BME280;40838;50.676;7.838;2023-11-19T00:27:34;97852.25;;;17.26;97.26
54936;BME280;40838;50.676;7.838;2023-11-19T00:30:01;97848.22;;;19.47;86.57
54936;BME280;40838;50.676;7.838;2023-11-19T00:32:32;97833.50;;;17.97;93.31
54936;BME280;40838;50.676;7.838;2023-11-19T00:35:00;97832.28;;;18.12;90.55
54936;BME280;40838;50.676;7.838;2023-11-19T00:37:28;97839.66;;;16.45;100.00
54936;BME280;40838;50.676;7.838;2023-11-19T00:39:55;97832.00;;;16.66;100.00
54936;BME280;40838;50.676;7.838;2023-11-19T00:42:21;97835.78;;;17.10;99.53
54936;BME280;40838;50.676;7.838;2023-11-19T00:44:49;97831.16;;;16.43;100.00
54936;BME280;40838;50.676;7.838;2023-11-19T00:47:16;97827.06;;;16.96;99.54
54936;BME280;40838;50.676;7.838;2023-11-19T00:49:46;97822.81;;;17.57;95.01
54936;BME280;40838;50.676;7.838;2023-11-19T00:52:17;97808.25;;;18.73;89.75
54936;BME280;40838;50.676;7.838;2023-11-19T00:54:44;97816.50;;;16.04;100.00
54936;BME280;40838;50.676;7.838;2023-11-19T00:57:11;97805.13;;;15.43;100.00
54936;BME280;40838;50.676;7.838;2023-11-19T00:59:37;97804.13;;;18.49;93.42
54936;BME280;40838;50.676;7.838;2023-11-19T01:02:04;97798.00;;;18.75;88.98
54936;BME280;40838;50.676;7.838;2023-11-19T01:04:33;97796.69;;;15.36;100.00
54936;BME280;40838;50.676;7.838;2023-11-19T01:07:01;97789.06;;;17.79;97.66
54936;BME280;40838;50.676;7.838;2023-11-19T01:09:30;97796.22;;;19.05;89.75
54936;BME280;40838;50.676;7.838;2023-11-19T01:12:00;97798.28;;;18.30;93.90
54936;BME280;40838;50.676;7.838;2023-11-19T01:14:26;97813.59;;;16.28;100.00
54936;BME280;40838;50.676;7.838;2023-11-19T01:16:53;97814.84;;;16.31;100.00
54936;BME280;40838;50.676;7.838;2023-11-19T01:19:23;97815.59;;;15.07;100.00
54936;BME280;40838;50.676;7.838;2023-11-19T01:21:49;97806.81;;;16.08;100.00
54936;BME280;40838;50.676;7.838;2023-11-19T01:24:16;97794.16;;;16.73;100.00
54936;BME280;40838;50.676;7.838;2023-11-19T01:26:45;97796.81;;;16.87;100.00
54936;BME280;40838;50.676;7.838;2023-11-19T01:29:12;97793.97;;;16.47;100.00
54936;BME280;40838;50.676;7.838;2023-11-19T01:31:40;97797.03;;;18.19;95.20
54936;BME280;40838;50.676;7.838;2023-11-19T01:34:07;97790.69;;;16.50;100.00
54936;BME280;40838;50.676;7.838;2023-11-19T01:36:34;97802.25;;;15.67;100.00
54936;BME280;40838;50.676;7.838;2023-11-19T01:39:00;97795.59;;;17.24;100.00
54936;BME280;40838;50.676;7.838;2023-11-19T01:41:28;97800.56;;;16.13;100.00
54936;BME280;40838;50.676;7.838;2023-11-19T01:43:57;97788.13;;;17.12;100.00
54936;BME280;40838;50.676;7.838;2023-11-19T01:46:22;97787.59;;;18.82;93.10
54936;BME280;40838;50.676;7.838;2023-11-19T01:48:50;97782.56;;;17.00;100.00
54936;BME280;40838;50.676;7.838;2023-11-19T01:51:17;97776.06;;;18.81;92.60
54936;BME280;40838;50.676;7.838;2023-11-19T01:53:44;97777.19;;;18.89;90.86
54936;BME280;40838;50.676;7.838;2023-11-19T01:56:13;97769.06;;;17.76;98.27
54936;BME280;40838;50.676;7.838;2023-11-19T01:58:43;97770.53;;;16.89;100.00
54936;BME280;40838;50.676;7.838;2023-11-19T02:01:13;97769.84;;;16.38;100.00
54936;BME280;40838;50.676;7.838;2023-11-19T02:03:40;97759.84;;;16.44;100.00
54936;BME280;40838;50.676;7.838;2023-11-19T02:06:07;97755.00;;;18.63;97.47
54936;BME280;40838;50.676;7.838;2023-11-19T02:08:35;97750.19;;;17.90;99.12
54936;BME280;40838;50.676;7.838;2023-11-19T02:11:02;97754.53;;;17.60;100.00
54936;BME280;40838;50.676;7.838;2023-11-19T02:13:30;97741.09;;;18.08;98.31
54936;BME280;40838;50.676;7.838;2023-11-19T02:15:56;97740.69;;;16.87;100.00
54936;BME280;40838;50.676;7.838;2023-11-19T02:18:29;97740.22;;;19.12;92.77
54936;BME280;40838;50.676;7.838;2023-11-19T02:20:56;97752.28;;;18.45;96.09
54936;BME280;40838;50.676;7.838;2023-11-19T02:23:24;97746.91;;;19.74;88.76
54936;BME280;40838;50.676;7.838;2023-11-19T02:26:02;97763.81;;;18.72;93.26
54936;BME280;40838;50.676;7.838;2023-11-19T02:28:36;97762.03;;;18.06;97.05
54936;BME280;40838;50.676;7.838;2023-11-19T02:31:03;97757.28;;;18.03;98.63
54936;BME280;40838;50.676;7.838;2023-11-19T02:33:34;97760.81;;;18.21;97.63
54936;BME280;40838;50.676;7.838;2023-11-19T02:36:01;97760.00;;;17.55;100.00
54936;BME280;40838;50.676;7.838;2023-11-19T02:38:29;97753.44;;;17.30;100.00
54936;BME280;40838;50.676;7.838;2023-11-19T02:40:56;97744.28;;;16.68;100.00
54936;BME280;40838;50.676;7.838;2023-11-19T02:43:23;97749.09;;;16.35;100.00
54936;BME280;40838;50.676;7.838;2023-11-19T02:45:51;97745.03;;;18.80;96.58
54936;BME280;40838;50.676;7.838;2023-11-19T02:48:21;97731.31;;;20.18;87.20
54936;BME280;40838;50.676;7.838;2023-11-19T02:50:47;97729.28;;;17.92;96.06
54936;BME280;40838;50.676;7.838;2023-11-19T02:53:14;97724.47;;;16.02;100.00
54936;BME280;40838;50.676;7.838;2023-11-19T02:55:41;97729.66;;;17.19;100.00
54936;BME280;40838;50.676;7.838;2023-11-19T02:58:13;97720.03;;;17.58;100.00
54936;BME280;40838;50.676;7.838;2023-11-19T03:00:49;97724.28;;;17.11;100.00
54936;BME280;40838;50.676;7.838;2023-11-19T03:03:24;97721.47;;;17.64;100.00
54936;BME280;40838;50.676;7.838;2023-11-19T03:05:54;97726.13;;;18.33;100.00
54936;BME280;40838;50.676;7.838;2023-11-19T03:08:21;97720.63;;;18.21;99.62
54936;BME280;40838;50.676;7.838;2023-11-19T03:10:48;97719.66;;;18.60;96.68
54936;BME280;40838;50.676;7.838;2023-11-19T03:13:15;97725.03;;;18.08;100.00
54936;BME280;40838;50.676;7.838;2023-11-19T03:15:42;97729.25;;;18.09;100.00
54936;BME280;40838;50.676;7.838;2023-11-19T03:18:09;97733.72;;;17.48;100.00
54936;BME280;40838;50.676;7.838;2023-11-19T03:20:37;97731.31;;;18.38;99.09
54936;BME280;40838;50.676;7.838;2023-11-19T03:23:04;97723.19;;;19.46;92.15
54936;BME280;40838;50.676;7.838;2023-11-19T03:25:31;97728.28;;;18.92;94.88
54936;BME280;40838;50.676;7.838;2023-11-19T03:28:00;97729.16;;;19.52;90.89
54936;BME280;40838;50.676;7.838;2023-11-19T03:30:28;97718.72;;;17.87;100.00
54936;BME280;40838;50.676;7.838;2023-11-19T03:32:54;97707.66;;;19.22;92.57
54936;BME280;40838;50.676;7.838;2023-11-19T03:35:21;97712.56;;;19.59;90.61
54936;BME280;40838;50.676;7.838;2023-11-19T03:37:52;97718.22;;;19.27;90.39
54936;BME280;40838;50.676;7.838;2023-11-19T03:40:18;97713.13;;;19.35;91.73
54936;BME280;40838;50.676;7.838;2023-11-19T03:42:45;97708.34;;;19.49;89.78
54936;BME280;40838;50.676;7.838;2023-11-19T03:45:12;97720.38;;;19.34;91.57
54936;BME280;40838;50.676;7.838;2023-11-19T03:47:39;97713.88;;;19.05;92.57
54936;BME280;40838;50.676;7.838;2023-11-19T03:50:07;97705.72;;;20.12;87.46
54936;BME280;40838;50.676;7.838;2023-11-19T03:52:34;97690.63;;;20.40;85.36
54936;BME280;40838;50.676;7.838;2023-11-19T03:55:02;97710.28;;;19.69;87.47
54936;BME280;40838;50.676;7.838;2023-11-19T03:57:30;97702.44;;;19.85;87.18
54936;BME280;40838;50.676;7.838;2023-11-19T03:59:56;97698.50;;;20.46;84.09
54936;BME280;40838;50.676;7.838;2023-11-19T04:02:24;97707.94;;;19.68;87.29
54936;BME280;40838;50.676;7.838;2023-11-19T04:04:53;97706.66;;;18.97;91.08
54936;BME280;40838;50.676;7.838;2023-11-19T04:07:20;97698.81;;;19.22;89.34
54936;BME280;40838;50.676;7.838;2023-11-19T04:09:47;97687.34;;;19.51;87.92
54936;BME280;40838;50.676;7.838;2023-11-19T04:12:15;97689.34;;;20.05;85.95
54936;BME280;40838;50.676;7.838;2023-11-19T04:14:42;97690.91;;;18.87;90.28
54936;BME280;40838;50.676;7.838;2023-11-19T04:17:09;97702.03;;;18.59;94.97
54936;BME280;40838;50.676;7.838;2023-11-19T04:19:36;97704.22;;;19.13;90.24
54936;BME280;40838;50.676;7.838;2023-11-19T04:22:05;97703.84;;;18.76;92.11
54936;BME280;40838;50.676;7.838;2023-11-19T04:24:32;97705.78;;;18.24;96.89
54936;BME280;40838;50.676;7.838;2023-11-19T04:26:59;97691.63;;;19.43;90.16
54936;BME280;40838;50.676;7.838;2023-11-19T04:29:27;97695.41;;;19.51;89.36
54936;BME280;40838;50.676;7.838;2023-11-19T04:31:53;97703.91;;;20.25;85.51
54936;BME280;40838;50.676;7.838;2023-11-19T04:34:20;97699.06;;;19.67;88.13
54936;BME280;40838;50.676;7.838;2023-11-19T04:36:47;97705.66;;;19.11;92.87
54936;BME280;40838;50.676;7.838;2023-11-19T04:39:14;97695.63;;;19.37;90.34
54936;BME280;40838;50.676;7.838;2023-11-19T04:41:47;97698.50;;;19.62;88.91
54936;BME280;40838;50.676;7.838;2023-11-19T04:44:14;97699.66;;;20.24;85.72
54936;BME280;40838;50.676;7.838;2023-11-19T04:46:44;97701.38;;;19.18;91.81
54936;BME280;40838;50.676;7.838;2023-11-19T04:49:12;97700.00;;;19.03;93.35
54936;BME280;40838;50.676;7.838;2023-11-19T04:51:39;97697.56;;;19.19;91.56
54936;BME280;40838;50.676;7.838;2023-11-19T04:54:07;97701.13;;;19.32;91.12
54936;BME280;40838;50.676;7.838;2023-11-19T04:56:34;97698.66;;;20.28;86.91
54936;BME280;40838;50.676;7.838;2023-11-19T04:59:01;97701.13;;;19.70;88.55
54936;BME280;40838;50.676;7.838;2023-11-19T05:01:28;97701.91;;;20.13;86.03
54936;BME280;40838;50.676;7.838;2023-11-19T05:03:57;97708.03;;;19.50;89.71
54936;BME280;40838;50.676;7.838;2023-11-19T05:06:26;97696.94;;;19.52;90.42
54936;BME280;40838;50.676;7.838;2023-11-19T05:08:53;97703.72;;;19.20;92.03
54936;BME280;40838;50.676;7.838;2023-11-19T05:11:20;97704.22;;;18.40;96.20
54936;BME280;40838;50.676;7.838;2023-11-19T05:13:47;97700.06;;;19.63;90.51
54936;BME280;40838;50.676;7.838;2023-11-19T05:16:14;97699.94;;;19.80;88.19
54936;BME280;40838;50.676;7.838;2023-11-19T05:18:41;97711.66;;;19.46;89.98
54936;BME280;40838;50.676;7.838;2023-11-19T05:21:09;97710.72;;;20.22;86.14
54936;BME280;40838;50.676;7.838;2023-11-19T05:23:36;97703.28;;;20.40;85.39
54936;BME280;40838;50.676;7.838;2023-11-19T05:26:03;97708.06;;;19.03;92.67
54936;BME280;40838;50.676;7.838;2023-11-19T05:28:30;97712.09;;;19.18;91.50
54936;BME280;40838;50.676;7.838;2023-11-19T05:30:57;97705.31;;;19.80;88.50
54936;BME280;40838;50.676;7.838;2023-11-19T05:33:24;97708.69;;;19.00;90.09
54936;BME280;40838;50.676;7.838;2023-11-19T05:35:50;97724.09;;;18.65;94.19
54936;BME280;40838;50.676;7.838;2023-11-19T05:38:19;97716.78;;;19.30;91.89
54936;BME280;40838;50.676;7.838;2023-11-19T05:40:46;97728.22;;;19.10;91.79
54936;BME280;40838;50.676;7.838;2023-11-19T05:43:13;97730.31;;;18.95;92.73
54936;BME280;40838;50.676;7.838;2023-11-19T05:45:42;97735.50;;;19.47;89.95
54936;BME280;40838;50.676;7.838;2023-11-19T05:48:09;97731.75;;;19.40;90.28
54936;BME280;40838;50.676;7.838;2023-11-19T05:50:36;97735.13;;;19.58;88.07
54936;BME280;40838;50.676;7.838;2023-11-19T05:53:02;97729.03;;;19.99;85.47
54936;BME280;40838;50.676;7.838;2023-11-19T05:55:33;97734.66;;;19.17;89.92
54936;BME280;40838;50.676;7.838;2023-11-19T05:58:00;97739.63;;;18.89;91.59
54936;BME280;40838;50.676;7.838;2023-11-19T06:00:28;97748.69;;;19.14;89.02
54936;BME280;40838;50.676;7.838;2023-11-19T06:02:56;97741.66;;;19.01;89.32
54936;BME280;40838;50.676;7.838;2023-11-19T06:05:22;97742.88;;;19.21;88.38
54936;BME280;40838;50.676;7.838;2023-11-19T06:07:49;97740.69;;;19.05;89.60
54936;BME280;40838;50.676;7.838;2023-11-19T06:10:16;97739.78;;;18.93;91.08
54936;BME280;40838;50.676;7.838;2023-11-19T06:12:46;97741.59;;;19.86;86.52
54936;BME280;40838;50.676;7.838;2023-11-19T06:15:13;97746.09;;;19.44;87.05
54936;BME280;40838;50.676;7.838;2023-11-19T06:17:40;97744.47;;;19.81;85.44
54936;BME280;40838;50.676;7.838;2023-11-19T06:20:07;97735.81;;;18.99;88.98
54936;BME280;40838;50.676;7.838;2023-11-19T06:22:34;97741.75;;;19.90;84.73
54936;BME280;40838;50.676;7.838;2023-11-19T06:25:02;97744.59;;;20.14;83.70
54936;BME280;40838;50.676;7.838;2023-11-19T06:27:32;97751.38;;;20.21;83.02
54936;BME280;40838;50.676;7.838;2023-11-19T06:30:01;97762.69;;;19.96;83.27
54936;BME280;40838;50.676;7.838;2023-11-19T06:32:27;97753.91;;;20.17;82.75
54936;BME280;40838;50.676;7.838;2023-11-19T06:34:54;97754.63;;;20.47;80.65
54936;BME280;40838;50.676;7.838;2023-11-19T06:37:22;97745.19;;;20.74;79.58
54936;BME280;40838;50.676;7.838;2023-11-19T06:39:48;97737.78;;;20.71;79.34
54936;BME280;40838;50.676;7.838;2023-11-19T06:42:15;97741.53;;;20.58;79.52
54936;BME280;40838;50.676;7.838;2023-11-19T06:44:42;97753.19;;;19.78;83.07
54936;BME280;40838;50.676;7.838;2023-11-19T06:47:10;97754.88;;;20.12;81.76
54936;BME280;40838;50.676;7.838;2023-11-19T06:49:37;97761.13;;;19.95;82.56
54936;BME280;40838;50.676;7.838;2023-11-19T06:52:04;97765.91;;;20.11;81.87
54936;BME280;40838;50.676;7.838;2023-11-19T06:54:31;97763.16;;;19.99;81.90
54936;BME280;40838;50.676;7.838;2023-11-19T06:56:58;97766.06;;;20.14;81.40
54936;BME280;40838;50.676;7.838;2023-11-19T06:59:25;97772.06;;;20.41;80.60
54936;BME280;40838;50.676;7.838;2023-11-19T07:01:51;97782.09;;;20.02;80.97
54936;BME280;40838;50.676;7.838;2023-11-19T07:04:20;97780.53;;;20.01;81.39
54936;BME280;40838;50.676;7.838;2023-11-19T07:06:46;97775.56;;;20.12;81.24
54936;BME280;40838;50.676;7.838;2023-11-19T07:09:13;97775.84;;;20.19;80.25
54936;BME280;40838;50.676;7.838;2023-11-19T07:11:41;97783.13;;;19.89;82.51
54936;BME280;40838;50.676;7.838;2023-11-19T07:14:09;97780.38;;;19.77;82.79
54936;BME280;40838;50.676;7.838;2023-11-19T07:16:37;97776.72;;;20.02;82.03
54936;BME280;40838;50.676;7.838;2023-11-19T07:19:04;97781.28;;;20.31;80.18
54936;BME280;40838;50.676;7.838;2023-11-19T07:21:32;97782.44;;;20.01;81.55
54936;BME280;40838;50.676;7.838;2023-11-19T07:23:59;97797.22;;;20.36;80.05
54936;BME280;40838;50.676;7.838;2023-11-19T07:26:26;97794.75;;;20.02;81.06
54936;BME280;40838;50.676;7.838;2023-11-19T07:28:53;97792.97;;;18.65;86.59
54936;BME280;40838;50.676;7.838;2023-11-19T07:31:21;97783.13;;;19.89;81.54
54936;BME280;40838;50.676;7.838;2023-11-19T07:33:49;97780.38;;;20.27;79.15
54936;BME280;40838;50.676;7.838;2023-11-19T07:36:16;97788.19;;;20.20;79.14
54936;BME280;40838;50.676;7.838;2023-11-19T07:38:45;97785.50;;;20.41;77.88
54936;BME280;40838;50.676;7.838;2023-11-19T07:41:13;97798.47;;;20.18;78.69
54936;BME280;40838;50.676;7.838;2023-11-19T07:43:42;97797.72;;;20.09;79.54
54936;BME280;40838;50.676;7.838;2023-11-19T07:46:12;97803.88;;;18.59;87.08
54936;BME280;40838;50.676;7.838;2023-11-19T07:48:40;97809.94;;;18.08;89.27
54936;BME280;40838;50.676;7.838;2023-11-19T07:51:07;97807.78;;;18.45;87.16
54936;BME280;40838;50.676;7.838;2023-11-19T07:53:34;97797.06;;;18.45;86.28
54936;BME280;40838;50.676;7.838;2023-11-19T07:56:05;97816.41;;;19.02;83.66
54936;BME280;40838;50.676;7.838;2023-11-19T07:58:32;97814.88;;;18.84;85.16
54936;BME280;40838;50.676;7.838;2023-11-19T08:01:00;97804.91;;;19.02;83.87
54936;BME280;40838;50.676;7.838;2023-11-19T08:03:27;97799.09;;;18.82;83.79
54936;BME280;40838;50.676;7.838;2023-11-19T08:05:55;97801.94;;;18.51;85.29
54936;BME280;40838;50.676;7.838;2023-11-19T08:08:22;97793.88;;;18.95;83.28
54936;BME280;40838;50.676;7.838;2023-11-19T08:10:49;97787.22;;;19.95;78.36
54936;BME280;40838;50.676;7.838;2023-11-19T08:13:18;97786.47;;;20.57;76.20
54936;BME280;40838;50.676;7.838;2023-11-19T08:15:45;97782.53;;;20.55;75.79
54936;BME280;40838;50.676;7.838;2023-11-19T08:18:12;97795.19;;;20.33;75.77
54936;BME280;40838;50.676;7.838;2023-11-19T08:20:39;97794.75;;;20.52;74.51
54936;BME280;40838;50.676;7.838;2023-11-19T08:23:06;97785.22;;;20.34;75.30
54936;BME280;40838;50.676;7.838;2023-11-19T08:25:33;97796.69;;;20.22;75.07
54936;BME280;40838;50.676;7.838;2023-11-19T08:28:00;97794.53;;;18.83;80.49
54936;BME280;40838;50.676;7.838;2023-11-19T08:30:30;97795.47;;;18.96;79.81
54936;BME280;40838;50.676;7.838;2023-11-19T08:32:57;97802.25;;;18.76;79.92
54936;BME280;40838;50.676;7.838;2023-11-19T08:35:24;97805.44;;;18.60;81.24
54936;BME280;40838;50.676;7.838;2023-11-19T08:37:50;97808.59;;;18.80;81.58
54936;BME280;40838;50.676;7.838;2023-11-19T08:40:18;97807.75;;;18.97;81.35
54936;BME280;40838;50.676;7.838;2023-11-19T08:42:45;97804.47;;;18.39;83.78
54936;BME280;40838;50.676;7.838;2023-11-19T08:45:12;97805.88;;;18.28;84.21
54936;BME280;40838;50.676;7.838;2023-11-19T08:47:40;97804.97;;;17.13;88.85
54936;BME280;40838;50.676;7.838;2023-11-19T08:50:07;97811.28;;;18.63;84.26
54936;BME280;40838;50.676;7.838;2023-11-19T08:52:34;97796.88;;;18.93;82.14
54936;BME280;40838;50.676;7.838;2023-11-19T08:55:01;97793.91;;;18.69;82.78
54936;BME280;40838;50.676;7.838;2023-11-19T08:57:30;97804.59;;;18.16;84.41
54936;BME280;40838;50.676;7.838;2023-11-19T08:59:58;97809.47;;;18.14;84.90
54936;BME280;40838;50.676;7.838;2023-11-19T09:02:25;97819.56;;;19.99;76.30
54936;BME280;40838;50.676;7.838;2023-11-19T09:04:53;97818.88;;;21.15;70.80
54936;BME280;40838;50.676;7.838;2023-11-19T09:07:20;97834.13;;;20.48;72.02
54936;BME280;40838;50.676;7.838;2023-11-19T09:09:47;97827.19;;;19.88;73.28
54936;BME280;40838;50.676;7.838;2023-11-19T09:12:14;97833.50;;;18.80;78.09
54936;BME280;40838;50.676;7.838;2023-11-19T09:14:41;97836.47;;;18.53;80.30
54936;BME280;40838;50.676;7.838;2023-11-19T09:17:08;97852.88;;;19.12;79.22
54936;BME280;40838;50.676;7.838;2023-11-19T09:19:36;97847.47;;;18.34;80.36
54936;BME280;40838;50.676;7.838;2023-11-19T09:22:04;97842.25;;;18.20;81.22
54936;BME280;40838;50.676;7.838;2023-11-19T09:24:30;97836.75;;;18.43;79.19
54936;BME280;40838;50.676;7.838;2023-11-19T09:26:57;97848.59;;;18.33;79.93
54936;BME280;40838;50.676;7.838;2023-11-19T09:29:25;97851.13;;;19.08;77.71
54936;BME280;40838;50.676;7.838;2023-11-19T09:31:52;97847.97;;;19.05;79.12
54936;BME280;40838;50.676;7.838;2023-11-19T09:34:19;97859.31;;;19.37;76.46
54936;BME280;40838;50.676;7.838;2023-11-19T09:36:46;97858.38;;;19.16;77.40
54936;BME280;40838;50.676;7.838;2023-11-19T09:39:14;97866.69;;;18.27;79.12
54936;BME280;40838;50.676;7.838;2023-11-19T09:41:44;97870.53;;;18.87;77.65
54936;BME280;40838;50.676;7.838;2023-11-19T09:44:11;97870.06;;;18.94;77.19
54936;BME280;40838;50.676;7.838;2023-11-19T09:46:41;97868.34;;;18.63;76.91
54936;BME280;40838;50.676;7.838;2023-11-19T09:49:08;97865.03;;;18.92;76.21
54936;BME280;40838;50.676;7.838;2023-11-19T09:51:35;97864.34;;;19.30;73.50
54936;BME280;40838;50.676;7.838;2023-11-19T09:54:03;97860.81;;;22.48;64.09
54936;BME280;40838;50.676;7.838;2023-11-19T09:56:33;97863.25;;;20.46;67.22
54936;BME280;40838;50.676;7.838;2023-11-19T09:59:01;97858.34;;;21.11;67.14
54936;BME280;40838;50.676;7.838;2023-11-19T10:01:28;97851.63;;;20.04;70.40
54936;BME280;40838;50.676;7.838;2023-11-19T10:03:57;97859.81;;;19.04;72.93
54936;BME280;40838;50.676;7.838;2023-11-19T10:06:25;97855.50;;;18.34;75.05
54936;BME280;40838;50.676;7.838;2023-11-19T10:08:53;97848.59;;;19.11;72.74
54936;BME280;40838;50.676;7.838;2023-11-19T10:11:21;97853.88;;;18.07;75.96
54936;BME280;40838;50.676;7.838;2023-11-19T10:13:51;97842.78;;;19.09;73.09
54936;BME280;40838;50.676;7.838;2023-11-19T10:16:18;97852.56;;;18.70;72.90
54936;BME280;40838;50.676;7.838;2023-11-19T10:18:46;97845.19;;;19.96;70.03
54936;BME280;40838;50.676;7.838;2023-11-19T10:21:14;97848.00;;;18.53;73.47
54936;BME280;40838;50.676;7.838;2023-11-19T10:23:49;97845.25;;;19.23;71.68
54936;BME280;40838;50.676;7.838;2023-11-19T10:26:18;97838.41;;;19.90;70.28
54936;BME280;40838;50.676;7.838;2023-11-19T10:28:46;97838.63;;;19.38;69.18
54936;BME280;40838;50.676;7.838;2023-11-19T10:31:15;97839.97;;;20.00;68.28
54936;BME280;40838;50.676;7.838;2023-11-19T10:33:42;97837.94;;;20.68;65.71
54936;BME280;40838;50.676;7.838;2023-11-19T10:36:10;97836.16;;;20.51;66.42
54936;BME280;40838;50.676;7.838;2023-11-19T10:38:38;97833.16;;;20.53;65.19
54936;BME280;40838;50.676;7.838;2023-11-19T10:41:06;97839.13;;;19.69;68.71
54936;BME280;40838;50.676;7.838;2023-11-19T10:43:43;97833.28;;;20.56;65.55
54936;BME280;40838;50.676;7.838;2023-11-19T10:46:12;97834.47;;;20.47;65.91
54936;BME280;40838;50.676;7.838;2023-11-19T10:48:40;97828.69;;;20.06;66.29
54936;BME280;40838;50.676;7.838;2023-11-19T10:51:07;97825.47;;;19.54;67.57
54936;BME280;40838;50.676;7.838;2023-11-19T10:53:37;97833.16;;;18.56;70.09
54936;BME280;40838;50.676;7.838;2023-11-19T10:56:06;97829.38;;;19.09;69.26
54936;BME280;40838;50.676;7.838;2023-11-19T10:58:36;97821.75;;;19.11;69.94
54936;BME280;40838;50.676;7.838;2023-11-19T11:01:09;97815.50;;;18.81;69.07
54936;BME280;40838;50.676;7.838;2023-11-19T11:03:41;97823.66;;;18.32;71.50
54936;BME280;40838;50.676;7.838;2023-11-19T11:06:08;97819.59;;;18.96;69.02
54936;BME280;40838;50.676;7.838;2023-11-19T11:08:39;97814.41;;;18.73;70.42
54936;BME280;40838;50.676;7.838;2023-11-19T11:11:07;97809.53;;;20.37;66.32
54936;BME280;40838;50.676;7.838;2023-11-19T11:13:37;97812.59;;;19.77;67.52
54936;BME280;40838;50.676;7.838;2023-11-19T11:16:07;97817.34;;;20.01;68.50
54936;BME280;40838;50.676;7.838;2023-11-19T11:18:34;97811.78;;;19.76;66.75
54936;BME280;40838;50.676;7.838;2023-11-19T11:21:06;97812.25;;;20.08;66.37
54936;BME280;40838;50.676;7.838;2023-11-19T11:23:56;97818.75;;;19.21;69.72
54936;BME280;40838;50.676;7.838;2023-11-19T11:26:52;97816.44;;;18.59;69.08
54936;BME280;40838;50.676;7.838;2023-11-19T11:29:26;97822.91;;;18.75;71.15
54936;BME280;40838;50.676;7.838;2023-11-19T11:32:03;97814.81;;;19.19;69.14
54936;BME280;40838;50.676;7.838;2023-11-19T11:34:47;97816.53;;;19.15;69.51
54936;BME280;40838;50.676;7.838;2023-11-19T11:37:25;97814.25;;;19.90;68.50
54936;BME280;40838;50.676;7.838;2023-11-19T11:39:52;97816.97;;;19.81;68.05
54936;BME280;40838;50.676;7.838;2023-11-19T11:42:36;97812.00;;;19.06;69.82
54936;BME280;40838;50.676;7.838;2023-11-19T11:45:05;97808.97;;;20.32;65.71
54936;BME280;40838;50.676;7.838;2023-11-19T11:48:10;97813.38;;;19.30;67.64
54936;BME280;40838;50.676;7.838;2023-11-19T11:50:52;97811.38;;;19.65;66.53
54936;BME280;40838;50.676;7.838;2023-11-19T11:53:22;97806.78;;;19.19;68.69
54936;BME280;40838;50.676;7.838;2023-11-19T11:55:54;97805.25;;;18.92;68.20
54936;BME280;40838;50.676;7.838;2023-11-19T11:58:26;97796.59;;;18.86;68.21
54936;BME280;40838;50.676;7.838;2023-11-19T12:00:57;97801.19;;;19.50;67.56
54936;BME280;40838;50.676;7.838;2023-11-19T12:03:27;97789.84;;;19.74;66.70
54936;BME280;40838;50.676;7.838;2023-11-19T12:05:55;97783.34;;;19.45;66.10
54936;BME280;40838;50.676;7.838;2023-11-19T12:08:27;97782.72;;;18.67;68.77
54936;BME280;40838;50.676;7.838;2023-11-19T12:10:56;97762.03;;;18.76;67.85
54936;BME280;40838;50.676;7.838;2023-11-19T12:13:27;97757.66;;;18.63;69.39
54936;BME280;40838;50.676;7.838;2023-11-19T12:16:08;97760.63;;;18.70;68.13
54936;BME280;40838;50.676;7.838;2023-11-19T12:18:39;97765.97;;;18.87;69.35
54936;BME280;40838;50.676;7.838;2023-11-19T12:21:06;97771.75;;;19.15;71.92
54936;BME280;40838;50.676;7.838;2023-11-19T12:23:44;97782.84;;;18.01;75.19
54936;BME280;40838;50.676;7.838;2023-11-19T12:26:21;97785.97;;;18.03;78.61
54936;BME280;40838;50.676;7.838;2023-11-19T12:28:58;97785.69;;;18.13;77.92
54936;BME280;40838;50.676;7.838;2023-11-19T12:31:25;97789.44;;;18.03;81.09
54936;BME280;40838;50.676;7.838;2023-11-19T12:33:52;97787.56;;;18.30;82.19
54936;BME280;40838;50.676;7.838;2023-11-19T12:36:20;97777.47;;;18.09;84.08
54936;BME280;40838;50.676;7.838;2023-11-19T12:38:49;97776.22;;;17.58;85.93
54936;BME280;40838;50.676;7.838;2023-11-19T12:41:16;97775.13;;;18.08;85.72
54936;BME280;40838;50.676;7.838;2023-11-19T12:43:47;97772.50;;;17.68;87.97
54936;BME280;40838;50.676;7.838;2023-11-19T12:46:18;97776.34;;;17.84;88.27
54936;BME280;40838;50.676;7.838;2023-11-19T12:48:46;97792.97;;;18.56;85.81
54936;BME280;40838;50.676;7.838;2023-11-19T12:51:13;97773.91;;;18.57;86.54
54936;BME280;40838;50.676;7.838;2023-11-19T12:53:49;97764.31;;;19.21;82.56
54936;BME280;40838;50.676;7.838;2023-11-19T12:56:19;97758.69;;;18.96;83.29
54936;BME280;40838;50.676;7.838;2023-11-19T12:58:46;97757.16;;;18.78;83.89
54936;BME280;40838;50.676;7.838;2023-11-19T13:01:16;97755.44;;;19.29;82.66
54936;BME280;40838;50.676;7.838;2023-11-19T13:03:44;97757.34;;;19.37;83.05
54936;BME280;40838;50.676;7.838;2023-11-19T13:06:12;97756.78;;;19.05;84.16